sensor_id;sensor_type;location;lat;lon;timestamp;pressure;altitude;pressure_sealevel;temperature;humidity
51293;BME280;37377;45.186;9.778;2024-02-26T09:44:19;0;;;unknown;unknown
51293;BME280;37377;45.186;9.778;2024-02-26T13:57:00;100040;;;9.6;67.2
51293;BME280;37377;45.186;9.778;2024-02-26T13:58:00;100040;;;11.3;64.8
51293;BME280;37377;45.186;9.778;2024-02-26T13:59:00;100040;;;11.3;64.8
51293;BME280;37377;45.186;9.778;2024-02-26T14:00:00;100050;;;11.0;64.5
51293;BME280;37377;45.186;9.778;2024-02-26T14:01:00;100050;;;11.0;64.5
51293;BME280;37377;45.186;9.778;2024-02-26T14:02:00;100070;;;11.1;64.5
51293;BME280;37377;45.186;9.778;2024-02-26T14:03:00;100070;;;11.1;64.5
51293;BME280;37377;45.186;9.778;2024-02-26T14:04:00;100070;;;11.3;63.7
51293;BME280;37377;45.186;9.778;2024-02-26T14:05:00;100070;;;11.3;63.7
51293;BME280;37377;45.186;9.778;2024-02-26T14:06:00;100060;;;11.3;64.4
51293;BME280;37377;45.186;9.778;2024-02-26T14:07:00;100060;;;11.3;64.4
51293;BME280;37377;45.186;9.778;2024-02-26T14:08:00;100050;;;10.9;64.7
51293;BME280;37377;45.186;9.778;2024-02-26T14:09:00;100050;;;10.9;64.7
51293;BME280;37377;45.186;9.778;2024-02-26T14:10:00;100050;;;11.3;64.2
51293;BME280;37377;45.186;9.778;2024-02-26T14:11:00;100050;;;11.3;64.2
51293;BME280;37377;45.186;9.778;2024-02-26T14:12:00;100070;;;11.7;63.7
51293;BME280;37377;45.186;9.778;2024-02-26T14:13:00;100070;;;11.7;63.7
51293;BME280;37377;45.186;9.778;2024-02-26T14:14:00;100060;;;11.0;64.6
51293;BME280;37377;45.186;9.778;2024-02-26T14:15:00;100060;;;11.0;64.6
51293;BME280;37377;45.186;9.778;2024-02-26T14:16:00;100060;;;11.1;64.4
51293;BME280;37377;45.186;9.778;2024-02-26T14:17:00;100060;;;11.1;64.4
51293;BME280;37377;45.186;9.778;2024-02-26T14:18:00;100060;;;11.2;64.1
51293;BME280;37377;45.186;9.778;2024-02-26T14:19:00;100060;;;11.2;64.1
51293;BME280;37377;45.186;9.778;2024-02-26T14:20:00;100070;;;11.6;63.4
51293;BME280;37377;45.186;9.778;2024-02-26T14:21:00;100070;;;11.6;63.4
51293;BME280;37377;45.186;9.778;2024-02-26T14:22:00;100070;;;11.1;65.2
51293;BME280;37377;45.186;9.778;2024-02-26T14:23:00;100070;;;11.1;65.2
51293;BME280;37377;45.186;9.778;2024-02-26T14:24:00;100080;;;11.2;65.5
51293;BME280;37377;45.186;9.778;2024-02-26T14:25:00;100080;;;11.2;65.5
51293;BME280;37377;45.186;9.778;2024-02-26T14:26:00;100080;;;11.0;65.9
51293;BME280;37377;45.186;9.778;2024-02-26T14:27:00;100080;;;11.0;65.9
51293;BME280;37377;45.186;9.778;2024-02-26T14:28:00;100090;;;11.0;64.9
51293;BME280;37377;45.186;9.778;2024-02-26T14:29:00;100090;;;11.0;64.9
51293;BME280;37377;45.186;9.778;2024-02-26T14:30:00;100090;;;11.4;64.5
51293;BME280;37377;45.186;9.778;2024-02-26T14:31:00;100090;;;11.4;64.5
51293;BME280;37377;45.186;9.778;2024-02-26T14:32:00;100080;;;11.2;64.9
51293;BME280;37377;45.186;9.778;2024-02-26T14:33:00;100080;;;11.2;64.9
51293;BME280;37377;45.186;9.778;2024-02-26T14:34:00;100080;;;11.5;65.0
51293;BME280;37377;45.186;9.778;2024-02-26T14:35:00;100080;;;11.5;65.0
51293;BME280;37377;45.186;9.778;2024-02-26T14:36:00;100090;;;11.3;64.3
51293;BME280;37377;45.186;9.778;2024-02-26T14:37:00;100090;;;11.3;64.3
51293;BME280;37377;45.186;9.778;2024-02-26T14:38:00;100110;;;11.7;64.3
51293;BME280;37377;45.186;9.778;2024-02-26T14:39:00;100110;;;11.7;64.3
51293;BME280;37377;45.186;9.778;2024-02-26T14:40:00;100120;;;11.0;65.3
51293;BME280;37377;45.186;9.778;2024-02-26T14:41:00;100120;;;11.0;65.3
51293;BME280;37377;45.186;9.778;2024-02-26T14:42:00;100120;;;11.4;64.8
51293;BME280;37377;45.186;9.778;2024-02-26T14:43:00;100120;;;11.4;64.8
51293;BME280;37377;45.186;9.778;2024-02-26T14:44:00;100110;;;11.5;64.5
51293;BME280;37377;45.186;9.778;2024-02-26T14:45:00;100110;;;11.5;64.5
51293;BME280;37377;45.186;9.778;2024-02-26T14:46:00;100110;;;11.6;65.1
51293;BME280;37377;45.186;9.778;2024-02-26T14:47:00;100110;;;11.6;65.1
51293;BME280;37377;45.186;9.778;2024-02-26T14:48:00;100100;;;11.4;66.3
51293;BME280;37377;45.186;9.778;2024-02-26T14:49:00;100100;;;11.4;66.3
51293;BME280;37377;45.186;9.778;2024-02-26T14:50:00;100100;;;11.1;66.7
51293;BME280;37377;45.186;9.778;2024-02-26T14:51:00;100100;;;11.1;66.7
51293;BME280;37377;45.186;9.778;2024-02-26T14:52:00;100100;;;11.3;66.6
51293;BME280;37377;45.186;9.778;2024-02-26T14:53:00;100100;;;11.3;66.6
51293;BME280;37377;45.186;9.778;2024-02-26T14:54:00;100100;;;11.6;67.0
51293;BME280;37377;45.186;9.778;2024-02-26T14:55:00;100100;;;11.6;67.0
51293;BME280;37377;45.186;9.778;2024-02-26T14:56:00;100110;;;11.5;71.1
51293;BME280;37377;45.186;9.778;2024-02-26T14:57:00;100110;;;11.5;71.1
51293;BME280;37377;45.186;9.778;2024-02-26T14:58:00;100120;;;11.4;67.7
51293;BME280;37377;45.186;9.778;2024-02-26T14:59:00;100120;;;11.4;67.7
51293;BME280;37377;45.186;9.778;2024-02-26T15:02:00;100120;;;12.2;66.7
51293;BME280;37377;45.186;9.778;2024-02-26T15:03:00;100120;;;12.2;66.7
51293;BME280;37377;45.186;9.778;2024-02-26T15:04:00;100130;;;11.4;66.7
51293;BME280;37377;45.186;9.778;2024-02-26T15:05:00;100130;;;11.4;66.7
51293;BME280;37377;45.186;9.778;2024-02-26T15:06:00;100130;;;12.1;66.1
51293;BME280;37377;45.186;9.778;2024-02-26T15:07:00;100130;;;12.1;66.1
51293;BME280;37377;45.186;9.778;2024-02-26T15:08:00;100130;;;12.2;66.8
51293;BME280;37377;45.186;9.778;2024-02-26T15:09:00;100130;;;12.2;66.8
51293;BME280;37377;45.186;9.778;2024-02-26T15:10:00;100140;;;11.6;67.6
51293;BME280;37377;45.186;9.778;2024-02-26T15:11:00;100140;;;11.6;67.6
51293;BME280;37377;45.186;9.778;2024-02-26T15:12:00;100140;;;12.2;66.5
51293;BME280;37377;45.186;9.778;2024-02-26T15:13:00;100140;;;12.2;66.5
51293;BME280;37377;45.186;9.778;2024-02-26T15:14:00;100140;;;12.2;65.2
51293;BME280;37377;45.186;9.778;2024-02-26T15:15:00;100140;;;12.2;65.2
51293;BME280;37377;45.186;9.778;2024-02-26T15:16:00;100140;;;11.8;67.1
51293;BME280;37377;45.186;9.778;2024-02-26T15:17:00;100140;;;11.8;67.1
51293;BME280;37377;45.186;9.778;2024-02-26T15:18:01;100140;;;12.2;66.7
51293;BME280;37377;45.186;9.778;2024-02-26T15:19:00;100140;;;12.2;66.7
51293;BME280;37377;45.186;9.778;2024-02-26T15:20:00;100130;;;12.5;66.3
51293;BME280;37377;45.186;9.778;2024-02-26T15:21:00;100130;;;12.5;66.3
51293;BME280;37377;45.186;9.778;2024-02-26T15:22:00;100140;;;12.5;64.9
51293;BME280;37377;45.186;9.778;2024-02-26T15:23:00;100140;;;12.5;64.9
51293;BME280;37377;45.186;9.778;2024-02-26T15:24:00;100140;;;12.9;64.5
51293;BME280;37377;45.186;9.778;2024-02-26T15:25:00;100140;;;12.9;64.5
51293;BME280;37377;45.186;9.778;2024-02-26T15:26:00;100140;;;12.7;66.2
51293;BME280;37377;45.186;9.778;2024-02-26T15:27:00;100140;;;12.7;66.2
51293;BME280;37377;45.186;9.778;2024-02-26T15:28:00;100140;;;12.3;65.8
51293;BME280;37377;45.186;9.778;2024-02-26T15:29:00;100140;;;12.3;65.8
51293;BME280;37377;45.186;9.778;2024-02-26T15:30:01;100140;;;11.9;67.4
51293;BME280;37377;45.186;9.778;2024-02-26T15:31:00;100140;;;11.9;67.4
51293;BME280;37377;45.186;9.778;2024-02-26T15:32:00;100140;;;11.7;68.7
51293;BME280;37377;45.186;9.778;2024-02-26T15:33:00;100140;;;11.7;68.7
51293;BME280;37377;45.186;9.778;2024-02-26T15:34:00;100120;;;12.2;68.3
51293;BME280;37377;45.186;9.778;2024-02-26T15:35:00;100120;;;12.2;68.3
51293;BME280;37377;45.186;9.778;2024-02-26T15:36:00;100130;;;11.8;68.3
51293;BME280;37377;45.186;9.778;2024-02-26T15:37:00;100130;;;11.8;68.3
51293;BME280;37377;45.186;9.778;2024-02-26T15:38:00;100130;;;11.8;68.4
51293;BME280;37377;45.186;9.778;2024-02-26T15:39:00;100130;;;11.8;68.4
51293;BME280;37377;45.186;9.778;2024-02-26T15:40:00;100130;;;12.0;68.7
51293;BME280;37377;45.186;9.778;2024-02-26T15:41:00;100130;;;12.0;68.7
51293;BME280;37377;45.186;9.778;2024-02-26T15:42:00;100120;;;12.1;67.6
51293;BME280;37377;45.186;9.778;2024-02-26T15:43:00;100120;;;12.1;67.6
51293;BME280;37377;45.186;9.778;2024-02-26T15:44:00;100120;;;11.8;69.4
51293;BME280;37377;45.186;9.778;2024-02-26T15:45:00;100120;;;11.8;69.4
51293;BME280;37377;45.186;9.778;2024-02-26T15:46:00;100130;;;11.4;70.7
51293;BME280;37377;45.186;9.778;2024-02-26T15:47:00;100130;;;11.4;70.7
51293;BME280;37377;45.186;9.778;2024-02-26T15:48:00;100120;;;11.3;71.2
51293;BME280;37377;45.186;9.778;2024-02-26T15:49:00;100120;;;11.3;71.2
51293;BME280;37377;45.186;9.778;2024-02-26T15:50:00;100120;;;11.8;70.8
51293;BME280;37377;45.186;9.778;2024-02-26T15:51:00;100120;;;11.8;70.8
51293;BME280;37377;45.186;9.778;2024-02-26T15:52:00;100120;;;11.3;71.4
51293;BME280;37377;45.186;9.778;2024-02-26T15:53:00;100120;;;11.3;71.4
51293;BME280;37377;45.186;9.778;2024-02-26T15:54:00;100130;;;11.4;71.6
51293;BME280;37377;45.186;9.778;2024-02-26T15:55:00;100130;;;11.4;71.6
51293;BME280;37377;45.186;9.778;2024-02-26T15:56:00;100140;;;11.2;72.2
51293;BME280;37377;45.186;9.778;2024-02-26T15:57:00;100140;;;11.2;72.2
51293;BME280;37377;45.186;9.778;2024-02-26T15:58:00;100140;;;11.3;72.1
51293;BME280;37377;45.186;9.778;2024-02-26T15:59:00;100140;;;11.3;72.1
51293;BME280;37377;45.186;9.778;2024-02-26T16:00:00;100150;;;11.3;71.4
51293;BME280;37377;45.186;9.778;2024-02-26T16:01:00;100150;;;11.3;71.4
51293;BME280;37377;45.186;9.778;2024-02-26T16:02:00;100140;;;11.3;71.3
51293;BME280;37377;45.186;9.778;2024-02-26T16:03:00;100140;;;11.3;71.3
51293;BME280;37377;45.186;9.778;2024-02-26T16:04:00;100150;;;11.3;70.7
51293;BME280;37377;45.186;9.778;2024-02-26T16:05:00;100150;;;11.3;70.7
51293;BME280;37377;45.186;9.778;2024-02-26T16:06:00;100150;;;11.2;71.9
51293;BME280;37377;45.186;9.778;2024-02-26T16:07:02;100150;;;11.2;71.9
51293;BME280;37377;45.186;9.778;2024-02-26T16:08:03;100150;;;11.4;71.4
51293;BME280;37377;45.186;9.778;2024-02-26T16:09:00;100150;;;11.4;71.4
51293;BME280;37377;45.186;9.778;2024-02-26T16:10:00;100160;;;11.7;70.1
51293;BME280;37377;45.186;9.778;2024-02-26T16:11:00;100160;;;11.7;70.1
51293;BME280;37377;45.186;9.778;2024-02-26T16:12:00;100170;;;11.6;71.2
51293;BME280;37377;45.186;9.778;2024-02-26T16:13:00;100170;;;11.6;71.2
51293;BME280;37377;45.186;9.778;2024-02-26T16:14:03;100180;;;11.8;70.6
51293;BME280;37377;45.186;9.778;2024-02-26T16:15:00;100180;;;11.8;70.6
51293;BME280;37377;45.186;9.778;2024-02-26T16:16:02;100180;;;11.5;71.6
51293;BME280;37377;45.186;9.778;2024-02-26T16:17:03;100180;;;11.5;71.6
51293;BME280;37377;45.186;9.778;2024-02-26T16:18:00;100180;;;11.3;72.1
51293;BME280;37377;45.186;9.778;2024-02-26T16:19:09;100180;;;11.3;72.1
51293;BME280;37377;45.186;9.778;2024-02-26T16:20:00;100170;;;11.4;72.1
51293;BME280;37377;45.186;9.778;2024-02-26T16:21:00;100170;;;11.4;72.1
51293;BME280;37377;45.186;9.778;2024-02-26T16:22:00;100170;;;11.4;72.0
51293;BME280;37377;45.186;9.778;2024-02-26T16:23:00;100170;;;11.4;72.0
51293;BME280;37377;45.186;9.778;2024-02-26T16:24:00;100160;;;11.2;72.5
51293;BME280;37377;45.186;9.778;2024-02-26T16:25:00;100160;;;11.2;72.5
51293;BME280;37377;45.186;9.778;2024-02-26T16:26:00;100170;;;11.6;71.2
51293;BME280;37377;45.186;9.778;2024-02-26T16:27:00;100170;;;11.6;71.2
51293;BME280;37377;45.186;9.778;2024-02-26T16:28:00;100150;;;11.2;72.5
51293;BME280;37377;45.186;9.778;2024-02-26T16:29:00;100150;;;11.2;72.5
51293;BME280;37377;45.186;9.778;2024-02-26T16:30:00;100160;;;11.0;72.2
51293;BME280;37377;45.186;9.778;2024-02-26T16:31:00;100160;;;11.0;72.2
51293;BME280;37377;45.186;9.778;2024-02-26T16:32:00;100150;;;10.8;72.2
51293;BME280;37377;45.186;9.778;2024-02-26T16:33:00;100150;;;10.8;72.2
51293;BME280;37377;45.186;9.778;2024-02-26T16:34:00;100150;;;11.0;72.5
51293;BME280;37377;45.186;9.778;2024-02-26T16:35:00;100150;;;11.0;72.5
51293;BME280;37377;45.186;9.778;2024-02-26T16:36:00;100140;;;11.1;72.7
51293;BME280;37377;45.186;9.778;2024-02-26T16:37:03;100140;;;11.1;72.7
51293;BME280;37377;45.186;9.778;2024-02-26T16:38:00;100140;;;11.0;72.7
51293;BME280;37377;45.186;9.778;2024-02-26T16:39:00;100140;;;11.0;72.7
51293;BME280;37377;45.186;9.778;2024-02-26T16:40:01;100140;;;10.8;72.8
51293;BME280;37377;45.186;9.778;2024-02-26T16:41:00;100140;;;10.8;72.8
51293;BME280;37377;45.186;9.778;2024-02-26T16:42:00;100150;;;11.0;73.0
51293;BME280;37377;45.186;9.778;2024-02-26T16:43:00;100150;;;11.0;73.0
51293;BME280;37377;45.186;9.778;2024-02-26T16:44:00;100150;;;11.0;73.0
51293;BME280;37377;45.186;9.778;2024-02-26T16:45:00;100150;;;11.0;73.0
51293;BME280;37377;45.186;9.778;2024-02-26T16:46:00;100150;;;10.6;73.2
51293;BME280;37377;45.186;9.778;2024-02-26T16:47:00;100150;;;10.6;73.2
51293;BME280;37377;45.186;9.778;2024-02-26T16:48:00;100150;;;11.0;72.7
51293;BME280;37377;45.186;9.778;2024-02-26T16:49:00;100150;;;11.0;72.7
51293;BME280;37377;45.186;9.778;2024-02-26T16:50:00;100150;;;10.9;71.8
51293;BME280;37377;45.186;9.778;2024-02-26T16:51:00;100150;;;10.9;71.8
51293;BME280;37377;45.186;9.778;2024-02-26T16:52:00;100160;;;10.5;72.9
51293;BME280;37377;45.186;9.778;2024-02-26T16:53:00;100160;;;10.5;72.9
51293;BME280;37377;45.186;9.778;2024-02-26T16:54:00;100170;;;10.7;72.5
51293;BME280;37377;45.186;9.778;2024-02-26T16:55:00;100170;;;10.7;72.5
51293;BME280;37377;45.186;9.778;2024-02-26T16:56:00;100170;;;11.2;71.5
51293;BME280;37377;45.186;9.778;2024-02-26T16:57:00;100170;;;11.2;71.5
51293;BME280;37377;45.186;9.778;2024-02-26T16:58:00;100170;;;10.8;72.4
51293;BME280;37377;45.186;9.778;2024-02-26T16:59:00;100170;;;10.8;72.4
51293;BME280;37377;45.186;9.778;2024-02-26T17:00:00;100170;;;10.9;71.5
51293;BME280;37377;45.186;9.778;2024-02-26T17:01:00;100170;;;10.9;71.5
51293;BME280;37377;45.186;9.778;2024-02-26T17:02:00;100180;;;11.2;70.8
51293;BME280;37377;45.186;9.778;2024-02-26T17:03:00;100180;;;11.2;70.8
51293;BME280;37377;45.186;9.778;2024-02-26T17:11:00;100180;;;10.8;72.0
51293;BME280;37377;45.186;9.778;2024-02-26T17:12:00;100180;;;11.5;70.5
51293;BME280;37377;45.186;9.778;2024-02-26T17:13:00;100180;;;11.5;70.5
51293;BME280;37377;45.186;9.778;2024-02-26T17:14:00;100180;;;11.1;71.2
51293;BME280;37377;45.186;9.778;2024-02-26T17:15:00;100180;;;11.1;71.2
51293;BME280;37377;45.186;9.778;2024-02-26T17:16:00;100190;;;11.5;69.4
51293;BME280;37377;45.186;9.778;2024-02-26T17:17:00;100190;;;11.5;69.4
51293;BME280;37377;45.186;9.778;2024-02-26T17:18:00;100190;;;11.1;70.4
51293;BME280;37377;45.186;9.778;2024-02-26T17:19:00;100190;;;11.1;70.4
51293;BME280;37377;45.186;9.778;2024-02-26T17:20:00;100200;;;11.5;69.0
51293;BME280;37377;45.186;9.778;2024-02-26T17:21:00;100200;;;11.5;69.0
51293;BME280;37377;45.186;9.778;2024-02-26T17:22:00;100200;;;10.9;70.8
51293;BME280;37377;45.186;9.778;2024-02-26T17:23:00;100200;;;10.9;70.8
51293;BME280;37377;45.186;9.778;2024-02-26T17:24:00;100210;;;11.2;70.5
51293;BME280;37377;45.186;9.778;2024-02-26T17:25:00;100210;;;11.2;70.5
51293;BME280;37377;45.186;9.778;2024-02-26T17:26:00;100200;;;11.0;70.2
51293;BME280;37377;45.186;9.778;2024-02-26T17:27:00;100200;;;11.0;70.2
51293;BME280;37377;45.186;9.778;2024-02-26T17:28:00;100210;;;11.3;69.8
51293;BME280;37377;45.186;9.778;2024-02-26T17:29:01;100210;;;11.3;69.8
51293;BME280;37377;45.186;9.778;2024-02-26T17:30:00;100210;;;11.0;70.5
51293;BME280;37377;45.186;9.778;2024-02-26T17:31:00;100210;;;11.0;70.5
51293;BME280;37377;45.186;9.778;2024-02-26T17:32:00;100210;;;11.2;69.8
51293;BME280;37377;45.186;9.778;2024-02-26T17:33:00;100210;;;11.2;69.8
51293;BME280;37377;45.186;9.778;2024-02-26T17:34:00;100220;;;10.8;70.5
51293;BME280;37377;45.186;9.778;2024-02-26T17:35:00;100220;;;10.8;70.5
51293;BME280;37377;45.186;9.778;2024-02-26T17:36:00;100220;;;11.4;69.6
51293;BME280;37377;45.186;9.778;2024-02-26T17:37:00;100220;;;11.4;69.6
51293;BME280;37377;45.186;9.778;2024-02-26T17:38:00;100210;;;10.7;71.1
51293;BME280;37377;45.186;9.778;2024-02-26T17:39:00;100210;;;10.7;71.1
51293;BME280;37377;45.186;9.778;2024-02-26T17:40:00;100230;;;11.4;69.6
51293;BME280;37377;45.186;9.778;2024-02-26T17:41:00;100230;;;11.4;69.6
51293;BME280;37377;45.186;9.778;2024-02-26T17:42:00;100230;;;11.1;69.4
51293;BME280;37377;45.186;9.778;2024-02-26T17:43:00;100230;;;11.1;69.4
51293;BME280;37377;45.186;9.778;2024-02-26T17:44:00;100230;;;11.3;69.5
51293;BME280;37377;45.186;9.778;2024-02-26T17:45:00;100230;;;11.3;69.5
51293;BME280;37377;45.186;9.778;2024-02-26T17:46:00;100230;;;11.2;69.6
51293;BME280;37377;45.186;9.778;2024-02-26T17:47:00;100230;;;11.2;69.6
51293;BME280;37377;45.186;9.778;2024-02-26T17:48:00;100220;;;11.0;68.7
51293;BME280;37377;45.186;9.778;2024-02-26T17:49:00;100220;;;11.0;68.7
51293;BME280;37377;45.186;9.778;2024-02-26T17:50:00;100210;;;10.9;69.6
51293;BME280;37377;45.186;9.778;2024-02-26T17:51:00;100210;;;10.9;69.6
51293;BME280;37377;45.186;9.778;2024-02-26T17:52:00;100210;;;10.4;69.8
51293;BME280;37377;45.186;9.778;2024-02-26T17:53:00;100210;;;10.4;69.8
51293;BME280;37377;45.186;9.778;2024-02-26T17:54:00;100220;;;10.4;70.7
51293;BME280;37377;45.186;9.778;2024-02-26T17:55:00;100220;;;10.4;70.7
51293;BME280;37377;45.186;9.778;2024-02-26T17:56:00;100230;;;10.6;70.1
51293;BME280;37377;45.186;9.778;2024-02-26T17:57:00;100230;;;10.6;70.1
51293;BME280;37377;45.186;9.778;2024-02-26T17:58:00;100240;;;11.1;68.5
51293;BME280;37377;45.186;9.778;2024-02-26T17:59:00;100240;;;11.1;68.5
51293;BME280;37377;45.186;9.778;2024-02-26T18:00:00;100250;;;10.9;68.6
51293;BME280;37377;45.186;9.778;2024-02-26T18:01:00;100250;;;10.9;68.6
51293;BME280;37377;45.186;9.778;2024-02-26T18:02:00;100240;;;10.8;68.3
51293;BME280;37377;45.186;9.778;2024-02-26T18:03:00;100240;;;10.8;68.3
51293;BME280;37377;45.186;9.778;2024-02-26T18:04:00;100250;;;11.1;67.7
51293;BME280;37377;45.186;9.778;2024-02-26T18:05:00;100250;;;11.1;67.7
51293;BME280;37377;45.186;9.778;2024-02-26T18:06:00;100240;;;10.7;68.2
51293;BME280;37377;45.186;9.778;2024-02-26T18:07:00;100240;;;10.7;68.2
51293;BME280;37377;45.186;9.778;2024-02-26T18:08:00;100230;;;10.8;68.2
51293;BME280;37377;45.186;9.778;2024-02-26T18:09:00;100230;;;10.8;68.2
51293;BME280;37377;45.186;9.778;2024-02-26T18:10:00;100230;;;10.6;68.5
51293;BME280;37377;45.186;9.778;2024-02-26T18:11:00;100230;;;10.6;68.5
51293;BME280;37377;45.186;9.778;2024-02-26T18:12:00;100240;;;10.5;68.5
51293;BME280;37377;45.186;9.778;2024-02-26T18:13:00;100240;;;10.5;68.5
51293;BME280;37377;45.186;9.778;2024-02-26T18:14:00;100230;;;11.0;68.1
51293;BME280;37377;45.186;9.778;2024-02-26T18:15:00;100230;;;11.0;68.1
51293;BME280;37377;45.186;9.778;2024-02-26T18:16:00;100230;;;11.1;67.7
51293;BME280;37377;45.186;9.778;2024-02-26T18:17:00;100230;;;11.1;67.7
51293;BME280;37377;45.186;9.778;2024-02-26T18:18:00;100230;;;11.1;67.7
51293;BME280;37377;45.186;9.778;2024-02-26T18:19:00;100230;;;11.1;67.7
51293;BME280;37377;45.186;9.778;2024-02-26T18:20:00;100230;;;11.0;67.6
51293;BME280;37377;45.186;9.778;2024-02-26T18:21:00;100230;;;11.0;67.6
51293;BME280;37377;45.186;9.778;2024-02-26T18:22:00;100240;;;10.8;68.7
51293;BME280;37377;45.186;9.778;2024-02-26T18:23:00;100240;;;10.8;68.7
51293;BME280;37377;45.186;9.778;2024-02-26T18:24:00;100230;;;10.9;68.2
51293;BME280;37377;45.186;9.778;2024-02-26T18:25:00;100230;;;10.9;68.2
51293;BME280;37377;45.186;9.778;2024-02-26T18:26:00;100230;;;11.0;69.0
51293;BME280;37377;45.186;9.778;2024-02-26T18:27:00;100230;;;11.0;69.0
51293;BME280;37377;45.186;9.778;2024-02-26T18:28:00;100240;;;10.8;68.1
51293;BME280;37377;45.186;9.778;2024-02-26T18:29:00;100240;;;10.8;68.1
51293;BME280;37377;45.186;9.778;2024-02-26T18:30:00;100230;;;10.8;69.2
51293;BME280;37377;45.186;9.778;2024-02-26T18:31:00;100230;;;10.8;69.2
51293;BME280;37377;45.186;9.778;2024-02-26T18:32:00;100230;;;11.4;68.1
51293;BME280;37377;45.186;9.778;2024-02-26T18:33:00;100230;;;11.4;68.1
51293;BME280;37377;45.186;9.778;2024-02-26T18:34:00;100230;;;10.5;68.9
51293;BME280;37377;45.186;9.778;2024-02-26T18:35:00;100230;;;10.5;68.9
51293;BME280;37377;45.186;9.778;2024-02-26T18:36:00;100220;;;10.7;68.7
51293;BME280;37377;45.186;9.778;2024-02-26T18:37:00;100220;;;10.7;68.7
51293;BME280;37377;45.186;9.778;2024-02-26T18:38:00;100230;;;10.8;68.4
51293;BME280;37377;45.186;9.778;2024-02-26T18:39:00;100230;;;10.8;68.4
51293;BME280;37377;45.186;9.778;2024-02-26T18:40:00;100230;;;11.0;68.1
51293;BME280;37377;45.186;9.778;2024-02-26T18:41:00;100230;;;11.0;68.1
51293;BME280;37377;45.186;9.778;2024-02-26T18:42:00;100230;;;11.2;67.5
51293;BME280;37377;45.186;9.778;2024-02-26T18:43:01;100230;;;11.2;67.5
51293;BME280;37377;45.186;9.778;2024-02-26T18:44:00;100230;;;11.0;68.1
51293;BME280;37377;45.186;9.778;2024-02-26T18:45:00;100230;;;11.0;68.1
51293;BME280;37377;45.186;9.778;2024-02-26T18:46:00;100220;;;11.1;68.1
51293;BME280;37377;45.186;9.778;2024-02-26T18:47:00;100220;;;11.1;68.1
51293;BME280;37377;45.186;9.778;2024-02-26T18:48:00;100220;;;11.2;68.4
51293;BME280;37377;45.186;9.778;2024-02-26T18:49:00;100220;;;11.2;68.4
51293;BME280;37377;45.186;9.778;2024-02-26T18:50:00;100220;;;11.3;69.0
51293;BME280;37377;45.186;9.778;2024-02-26T18:51:00;100220;;;11.3;69.0
51293;BME280;37377;45.186;9.778;2024-02-26T18:52:00;100220;;;11.0;69.6
51293;BME280;37377;45.186;9.778;2024-02-26T18:53:00;100220;;;11.0;69.6
51293;BME280;37377;45.186;9.778;2024-02-26T18:54:00;100210;;;11.0;69.2
51293;BME280;37377;45.186;9.778;2024-02-26T18:55:00;100210;;;11.0;69.2
51293;BME280;37377;45.186;9.778;2024-02-26T18:56:00;100220;;;11.3;68.9
51293;BME280;37377;45.186;9.778;2024-02-26T18:57:00;100220;;;11.3;68.9
51293;BME280;37377;45.186;9.778;2024-02-26T18:58:00;100220;;;11.1;68.7
51293;BME280;37377;45.186;9.778;2024-02-26T18:59:01;100220;;;11.1;68.7
51293;BME280;37377;45.186;9.778;2024-02-26T19:00:00;100220;;;11.1;69.2
51293;BME280;37377;45.186;9.778;2024-02-26T19:01:00;100220;;;11.1;69.2
51293;BME280;37377;45.186;9.778;2024-02-26T19:02:00;100220;;;11.5;68.4
51293;BME280;37377;45.186;9.778;2024-02-26T19:03:00;100220;;;11.5;68.4
51293;BME280;37377;45.186;9.778;2024-02-26T19:04:00;100220;;;11.3;68.7
51293;BME280;37377;45.186;9.778;2024-02-26T19:05:00;100220;;;11.3;68.7
51293;BME280;37377;45.186;9.778;2024-02-26T19:06:00;100230;;;11.6;68.1
51293;BME280;37377;45.186;9.778;2024-02-26T19:07:00;100230;;;11.6;68.1
51293;BME280;37377;45.186;9.778;2024-02-26T19:08:00;100230;;;11.1;70.1
51293;BME280;37377;45.186;9.778;2024-02-26T19:09:00;100230;;;11.1;70.1
51293;BME280;37377;45.186;9.778;2024-02-26T19:10:00;100230;;;11.3;69.0
51293;BME280;37377;45.186;9.778;2024-02-26T19:11:00;100230;;;11.3;69.0
51293;BME280;37377;45.186;9.778;2024-02-26T19:12:00;100230;;;11.3;69.0
51293;BME280;37377;45.186;9.778;2024-02-26T19:16:00;100230;;;11.4;68.8
51293;BME280;37377;45.186;9.778;2024-02-26T19:17:00;100230;;;11.4;68.8
51293;BME280;37377;45.186;9.778;2024-02-26T19:19:01;100230;;;11.1;69.6
51293;BME280;37377;45.186;9.778;2024-02-26T19:20:00;100230;;;11.6;68.0
51293;BME280;37377;45.186;9.778;2024-02-26T19:21:00;100230;;;11.6;68.0
51293;BME280;37377;45.186;9.778;2024-02-26T19:23:00;100230;;;11.4;68.2
51293;BME280;37377;45.186;9.778;2024-02-26T19:25:00;100230;;;11.5;69.1
51293;BME280;37377;45.186;9.778;2024-02-26T19:26:00;100230;;;11.9;68.4
51293;BME280;37377;45.186;9.778;2024-02-26T19:27:00;100230;;;11.9;68.4
51293;BME280;37377;45.186;9.778;2024-02-26T19:29:00;100230;;;11.6;67.7
51293;BME280;37377;45.186;9.778;2024-02-26T19:30:00;100230;;;11.6;67.7
51293;BME280;37377;45.186;9.778;2024-02-26T19:32:00;100240;;;10.9;68.3
51293;BME280;37377;45.186;9.778;2024-02-26T19:33:00;100240;;;10.9;68.3
51293;BME280;37377;45.186;9.778;2024-02-26T19:34:00;100230;;;11.3;67.1
51293;BME280;37377;45.186;9.778;2024-02-26T19:35:00;100230;;;11.3;67.1
51293;BME280;37377;45.186;9.778;2024-02-26T19:36:00;100230;;;11.3;67.1
51293;BME280;37377;45.186;9.778;2024-02-26T19:37:00;100240;;;10.8;68.3
51293;BME280;37377;45.186;9.778;2024-02-26T19:39:00;100240;;;11.6;66.5
51293;BME280;37377;45.186;9.778;2024-02-26T19:40:00;100230;;;11.6;66.9
51293;BME280;37377;45.186;9.778;2024-02-26T19:41:00;100230;;;11.6;66.9
51293;BME280;37377;45.186;9.778;2024-02-26T19:42:00;100230;;;11.4;66.6
51293;BME280;37377;45.186;9.778;2024-02-26T19:43:00;100230;;;11.4;66.6
51293;BME280;37377;45.186;9.778;2024-02-26T19:44:00;100230;;;11.5;67.1
51293;BME280;37377;45.186;9.778;2024-02-26T19:45:00;100230;;;11.5;67.1
51293;BME280;37377;45.186;9.778;2024-02-26T19:46:00;100230;;;11.0;67.3
51293;BME280;37377;45.186;9.778;2024-02-26T19:51:00;100230;;;11.6;65.6
51293;BME280;37377;45.186;9.778;2024-02-26T19:52:00;100240;;;11.8;65.9
51293;BME280;37377;45.186;9.778;2024-02-26T19:53:00;100240;;;11.8;65.9